Ketchikan International Airport
PAKT : now visible

Airfield :











YOU CAN JOIN US ON...

 
LOGIN :

Register | Disclaimer

   EN    FR    IT 

 









Legend :    VFR   Marginal VFR   IFR   Intensive IFR   Very Intensive IFR
Visi :
Ceiling :
>= 8 km
>= 3000ft
5 to 8 km
1000 to 3000 ft
1500m to 5 km
500 to 1000 ft
800 to 1500m
200 to 500 ft
< 800m
< 200 ft
Symbols :   Thunderstorms  Fog  Heavy snow  Heavy precipitations  Wind > 20 kt







- Airport Elevation : 89 ft
- IATA code : KTN


PAKT - Ketchikan International

CURRENT METAR :
  • 170753Z AUTO 00000KT 10SM BKN060 OVC070 11/10 A2949 RMK RAE16 SLP988 P0000 T01060100 TSNO VIA AUTODIAL

EXPIRED METARs :
  • 170653Z AUTO VRB04KT 10SM -RA OVC055 11/09 A2949 RMK SLP986 P0003 T01110094 TSNO VIA AUTODIAL
  • 170553Z AUTO 16008KT 10SM -RA OVC060 11/09 A2948 RMK PK WND 11027/0505 SLP984 P0001 60014 T01110089 10128 20111 58006 TSNO VIA AUTODIAL

TAF PAKT
Valid from the 17 at 06:00 until the 18 at 06:00 UTC


170521Z 1706/1806 15010KT P6SM -RA SCT015 OVC050 WS020/14030KT
FM171000 VRB05KT P6SM VCSH BKN050 OVC080 WS020/10030KT
FM171700 33010KT P6SM SCT050 BKN090 AMD LTD TO CLD VIS AND WIND 1706/1715
No reported NOTAMs for that airfield.



MET'MAP, your aeronautical weather chart ! - Copyright ORBIFLY December 2007 - Disclaimer

ORBIFLY MET'MAP TEAM :

Programming & Development : Alexandra Zaïnal
Concept & Development : Baudouin d'Aumeries
Co-Development & Prog : Marc-Olivier Méhu
Technical & hardware support : Manuel Goepfert

Contact : metmap@orbifly.com




SOURCES & CREDITS :

   NOAA       Earth
Advisory